Time;durP1;ratioP1;P1;durP2;ratioP2;P2;SDS_P1;SDS_P2;PMS_P1;PMS_P2;Temp;Humidity;BMP_temperature;BMP_pressure;BME280_temperature;BME280_humidity;BME280_pressure;Samples;Min_cycle;Max_cycle;Signal;HPM_P1;HPM_P2
2021/12/21 00:00:51;;;;;;;9.50;3.70;;;-1.90;99.90;;;;;;5029006;28;20241;-73
2021/12/21 00:03:17;;;;;;;7.45;3.53;;;-1.90;99.90;;;;;;5029481;28;20213;-74
2021/12/21 00:05:44;;;;;;;7.18;2.97;;;-1.90;99.90;;;;;;5011557;28;20170;-74
2021/12/21 00:08:12;;;;;;;9.05;3.53;;;-2.20;99.90;;;;;;5011404;28;20170;-74
2021/12/21 00:10:43;;;;;;;4.40;3.25;;;-2.40;99.90;;;;;;5029225;28;20214;-74
2021/12/21 00:13:24;;;;;;;8.38;4.55;;;-2.60;99.90;;;;;;5029328;28;20204;-74
2021/12/21 00:19:35;;;;;;;5.95;3.85;;;-2.80;99.90;;;;;;5028917;28;20765;-74
2021/12/21 00:21:35;;;;;;;8.55;3.67;;;-3.00;99.90;;;;;;5023428;28;20193;-74
2021/12/21 00:24:10;;;;;;;9.50;3.95;;;-3.10;99.90;;;;;;5029061;28;20168;-73
2021/12/21 00:26:37;;;;;;;9.18;3.35;;;-3.00;99.90;;;;;;5029162;28;20156;-73
2021/12/21 00:29:03;;;;;;;4.95;3.13;;;-3.10;99.90;;;;;;5028985;28;20201;-73
2021/12/21 00:31:34;;;;;;;7.18;3.92;;;-3.00;99.90;;;;;;5029152;28;20165;-73
2021/12/21 00:34:04;;;;;;;9.23;5.03;;;-3.10;99.90;;;;;;5011331;28;20193;-73
2021/12/21 00:36:31;;;;;;;16.65;9.10;;;-3.20;99.90;;;;;;5029064;28;20154;-72
2021/12/21 00:39:03;;;;;;;14.23;7.28;;;-3.20;99.90;;;;;;5029010;28;20258;-73
2021/12/21 00:41:29;;;;;;;8.38;5.03;;;-3.10;99.90;;;;;;5028971;28;20182;-74
2021/12/21 00:43:54;;;;;;;13.50;4.57;;;-2.90;99.90;;;;;;5028938;28;20619;-73
2021/12/21 00:46:21;;;;;;;9.73;4.38;;;-2.60;99.90;;;;;;5028968;28;20162;-73
2021/12/21 00:48:53;;;;;;;10.98;5.57;;;-2.70;99.90;;;;;;5030341;28;20194;-73
2021/12/21 00:51:22;;;;;;;10.10;5.22;;;-2.90;99.90;;;;;;5032802;28;20158;-73
2021/12/21 00:53:49;;;;;;;7.35;4.70;;;-2.70;99.90;;;;;;5015028;28;20170;-73
2021/12/21 00:56:16;;;;;;;10.82;5.18;;;-2.70;99.90;;;;;;5032734;28;20174;-73
2021/12/21 00:58:42;;;;;;;9.60;5.47;;;-2.70;99.90;;;;;;5032354;28;20198;-73
2021/12/21 01:01:08;;;;;;;7.57;4.93;;;-2.60;99.90;;;;;;5027505;28;20205;-73
2021/12/21 01:03:36;;;;;;;9.32;4.50;;;-2.60;99.90;;;;;;5028071;28;20192;-73
2021/12/21 01:06:13;;;;;;;10.20;4.68;;;-2.60;99.90;;;;;;5032386;28;20186;-73
2021/12/21 01:08:57;;;;;;;10.00;4.53;;;-2.50;99.90;;;;;;5014703;28;20647;-73
2021/12/21 01:11:31;;;;;;;6.35;4.05;;;-2.60;99.90;;;;;;5032257;28;20158;-73
2021/12/21 01:21:43;;;;;;;8.40;4.03;;;-2.40;99.90;;;;;;5032188;28;20153;-73
2021/12/21 01:27:10;;;;;;;6.38;3.50;;;-2.40;99.90;;;;;;5032094;28;20161;-73
2021/12/21 01:30:30;;;;;;;7.72;3.60;;;-2.60;99.90;;;;;;5031781;28;20229;-72
2021/12/21 01:35:13;;;;;;;4.32;2.60;;;-2.90;99.90;;;;;;5031513;28;20181;-73
2021/12/21 01:50:57;;;;;;;10.07;3.50;;;-3.50;99.90;;;;;;5031527;28;20192;-73
2021/12/21 01:53:23;;;;;;;5.00;3.88;;;-3.50;99.90;;;;;;5031573;28;20229;-73
2021/12/21 01:55:49;;;;;;;6.75;3.20;;;-3.50;99.90;;;;;;5030632;28;20276;-73
2021/12/21 01:58:15;;;;;;;6.75;3.92;;;-3.60;99.90;;;;;;5030406;28;20213;-72
2021/12/21 02:00:42;;;;;;;10.93;3.90;;;-3.60;99.90;;;;;;5030485;28;20221;-73
2021/12/21 02:03:09;;;;;;;7.25;3.10;;;-3.50;99.90;;;;;;5013471;28;20189;-73
2021/12/21 02:05:37;;;;;;;5.03;3.30;;;-3.60;99.90;;;;;;5031172;28;20190;-72
2021/12/21 02:08:05;;;;;;;6.22;3.35;;;-3.70;99.90;;;;;;5031180;28;20193;-73
2021/12/21 02:10:32;;;;;;;7.85;3.75;;;-3.70;99.90;;;;;;5013417;28;20194;-73
2021/12/21 02:12:59;;;;;;;6.32;3.75;;;-3.70;99.90;;;;;;5013577;28;20233;-73
2021/12/21 02:15:25;;;;;;;8.68;3.88;;;-3.40;99.90;;;;;;5030990;28;20197;-73
2021/12/21 02:23:16;;;;;;;6.75;3.92;;;-3.10;99.90;;;;;;5031107;28;20173;-73
2021/12/21 02:30:46;;;;;;;6.50;3.42;;;-3.40;99.90;;;;;;5030938;28;20212;-72
2021/12/21 02:33:13;;;;;;;4.68;3.55;;;-3.50;99.90;;;;;;5030783;28;20174;-72
2021/12/21 02:35:41;;;;;;;5.32;2.50;;;-3.60;99.90;;;;;;5030652;28;20190;-73
2021/12/21 02:38:07;;;;;;;7.95;3.97;;;-3.70;99.90;;;;;;5030585;28;20623;-72
2021/12/21 02:40:34;;;;;;;6.22;2.85;;;-3.60;99.90;;;;;;5030591;28;20169;-72
2021/12/21 02:43:02;;;;;;;7.13;2.85;;;-3.40;99.90;;;;;;5030622;28;20165;-73
2021/12/21 02:45:28;;;;;;;9.90;3.33;;;-3.40;99.90;;;;;;5030417;28;20662;-72
2021/12/21 02:47:54;;;;;;;7.47;3.75;;;-3.50;99.90;;;;;;5030534;28;20171;-72
2021/12/21 02:50:20;;;;;;;5.00;3.15;;;-3.50;99.90;;;;;;5030509;28;20193;-73
2021/12/21 02:52:47;;;;;;;8.50;3.58;;;-3.60;99.90;;;;;;5030396;28;20165;-72
2021/12/21 02:55:14;;;;;;;3.17;2.47;;;-3.80;99.90;;;;;;5012768;28;20198;-72
2021/12/21 02:57:40;;;;;;;7.25;3.22;;;-3.80;99.90;;;;;;5030373;28;20154;-74
2021/12/21 03:00:08;;;;;;;7.95;3.17;;;-3.70;99.90;;;;;;5029994;28;20222;-74
2021/12/21 03:02:35;;;;;;;4.97;2.50;;;-3.80;99.90;;;;;;5030147;28;20162;-75
2021/12/21 03:05:02;;;;;;;5.28;3.20;;;-3.80;99.90;;;;;;5030059;28;20190;-74
2021/12/21 03:10:11;;;;;;;6.38;3.67;;;-3.80;99.90;;;;;;5030138;28;20212;-73
2021/12/21 03:15:28;;;;;;;6.40;3.50;;;-3.90;99.90;;;;;;5030150;28;20550;-73
2021/12/21 03:17:56;;;;;;;5.28;3.90;;;-3.90;99.90;;;;;;5030071;28;20165;-73
2021/12/21 03:20:23;;;;;;;7.90;3.78;;;-4.00;99.90;;;;;;5029743;28;20212;-72
2021/12/21 03:22:49;;;;;;;6.70;3.20;;;-4.00;99.90;;;;;;5029846;28;20158;-74
2021/12/21 03:25:16;;;;;;;6.38;3.17;;;-4.00;99.90;;;;;;5029741;28;20561;-74
2021/12/21 03:27:43;;;;;;;4.25;2.78;;;-4.10;99.90;;;;;;5029661;28;20165;-74
2021/12/21 03:30:12;;;;;;;5.65;3.55;;;-4.10;99.90;;;;;;5011817;28;20220;-74
2021/12/21 03:32:38;;;;;;;3.75;2.55;;;-4.00;99.90;;;;;;5029656;28;20158;-74
2021/12/21 03:35:05;;;;;;;4.68;3.08;;;-4.00;99.90;;;;;;5029472;28;20220;-76
2021/12/21 03:37:31;;;;;;;7.80;4.40;;;-3.90;99.90;;;;;;5029622;28;20162;-75
2021/12/21 03:39:58;;;;;;;4.00;3.15;;;-4.00;99.90;;;;;;5029463;28;20194;-74
2021/12/21 03:42:24;;;;;;;4.50;3.20;;;-4.10;99.90;;;;;;5029593;28;20249;-74
2021/12/21 03:44:51;;;;;;;8.55;3.20;;;-4.20;99.90;;;;;;5029458;28;20213;-72
2021/12/21 03:47:17;;;;;;;6.07;3.28;;;-4.20;99.90;;;;;;5029311;28;20166;-72
2021/12/21 03:52:16;;;;;;;8.20;3.50;;;-3.90;99.90;;;;;;5029478;28;20166;-71
2021/12/21 03:54:45;;;;;;;5.45;3.67;;;-3.80;99.90;;;;;;5029159;28;20190;-72
2021/12/21 03:57:12;;;;;;;4.97;3.45;;;-3.90;99.90;;;;;;5029114;28;20220;-75
2021/12/21 03:59:41;;;;;;;4.25;2.88;;;-3.90;99.90;;;;;;5029115;28;20276;-74
2021/12/21 04:02:08;;;;;;;4.85;3.55;;;-4.00;99.90;;;;;;5027841;28;20178;-73
2021/12/21 04:04:34;;;;;;;7.50;4.05;;;-4.10;99.90;;;;;;5029002;28;20197;-73
2021/12/21 04:07:00;;;;;;;9.07;3.83;;;-3.90;99.90;;;;;;5011455;28;20237;-72
2021/12/21 04:09:26;;;;;;;13.52;3.42;;;-3.90;99.90;;;;;;5028902;28;20201;-74
2021/12/21 04:11:52;;;;;;;11.25;5.60;;;-3.80;99.90;;;;;;5011533;28;20178;-74
2021/12/21 04:14:19;;;;;;;7.15;4.10;;;-3.70;99.90;;;;;;5029113;28;20208;-74
2021/12/21 04:16:46;;;;;;;10.55;4.22;;;-3.80;99.90;;;;;;5028846;28;20188;-73
2021/12/21 04:19:13;;;;;;;5.90;3.17;;;-3.90;99.90;;;;;;5029048;28;20162;-74
2021/12/21 04:21:40;;;;;;;6.10;3.15;;;-3.90;99.90;;;;;;5029124;28;20229;-74
2021/12/21 04:24:06;;;;;;;6.60;3.58;;;-3.80;99.90;;;;;;5031094;28;20154;-73
2021/12/21 04:26:32;;;;;;;4.28;2.80;;;-3.60;99.90;;;;;;5033126;28;20154;-74
2021/12/21 04:28:58;;;;;;;5.18;3.05;;;-3.50;99.90;;;;;;5033044;28;20166;-74
2021/12/21 04:31:24;;;;;;;10.10;4.00;;;-3.60;99.90;;;;;;5033124;28;20201;-73
2021/12/21 04:33:50;;;;;;;11.45;3.60;;;-3.80;99.90;;;;;;5032885;28;20196;-74
2021/12/21 04:36:16;;;;;;;6.75;3.90;;;-3.70;99.90;;;;;;5015235;28;20267;-74
2021/12/21 04:38:46;;;;;;;9.13;3.17;;;-3.60;99.90;;;;;;5032913;28;20201;-74
2021/12/21 04:41:23;;;;;;;7.15;3.75;;;-3.60;99.90;;;;;;5032682;28;20161;-76
2021/12/21 04:43:51;;;;;;;7.68;3.55;;;-3.70;99.90;;;;;;5032695;28;20162;-74
2021/12/21 04:46:17;;;;;;;9.18;2.85;;;-3.60;99.90;;;;;;5032525;28;20518;-73
2021/12/21 04:48:43;;;;;;;3.95;3.47;;;-3.40;99.90;;;;;;5032733;28;20158;-73
2021/12/21 04:51:09;;;;;;;5.63;2.85;;;-3.40;99.90;;;;;;5032556;28;20194;-74
2021/12/21 04:53:35;;;;;;;5.05;3.22;;;-3.60;99.90;;;;;;5032889;28;20195;-74
2021/12/21 04:56:02;;;;;;;7.75;2.83;;;-3.80;99.90;;;;;;5032283;28;20232;-73
2021/12/21 04:58:29;;;;;;;8.48;2.92;;;-4.00;99.90;;;;;;5032219;28;20162;-73
2021/12/21 05:00:55;;;;;;;6.32;2.70;;;-4.00;99.90;;;;;;5032142;28;20244;-73
2021/12/21 05:03:21;;;;;;;11.38;4.60;;;-4.10;99.90;;;;;;5032106;28;20162;-73
2021/12/21 05:05:47;;;;;;;10.05;3.22;;;-4.10;99.90;;;;;;5032188;28;20204;-73
2021/12/21 05:08:23;;;;;;;3.53;2.85;;;-4.20;99.90;;;;;;5032414;28;20206;-73
2021/12/21 05:10:53;;;;;;;5.07;2.50;;;-4.30;99.90;;;;;;5032253;28;20197;-73
2021/12/21 05:13:22;;;;;;;7.68;3.88;;;-4.20;99.90;;;;;;5032140;28;20151;-73
2021/12/21 05:15:48;;;;;;;8.57;2.88;;;-4.00;99.90;;;;;;5031869;28;20193;-74
2021/12/21 05:18:16;;;;;;;3.97;2.53;;;-3.90;99.90;;;;;;5031693;28;20162;-73
2021/12/21 05:20:43;;;;;;;6.93;3.90;;;-4.00;99.90;;;;;;5031490;28;20206;-73
2021/12/21 05:23:10;;;;;;;6.07;2.90;;;-4.10;99.90;;;;;;5031844;28;20181;-73
2021/12/21 05:25:37;;;;;;;5.05;2.70;;;-4.20;99.90;;;;;;5031955;28;20194;-73
2021/12/21 05:28:04;;;;;;;3.50;2.78;;;-4.10;99.90;;;;;;5031775;28;20162;-72
2021/12/21 05:30:34;;;;;;;6.45;3.10;;;-4.00;99.90;;;;;;5014236;28;20209;-73
2021/12/21 05:33:00;;;;;;;10.73;3.65;;;-4.00;99.90;;;;;;5031791;28;20160;-73
2021/12/21 05:35:26;;;;;;;3.78;2.60;;;-4.10;99.90;;;;;;5030670;28;20185;-73
2021/12/21 05:37:58;;;;;;;6.57;2.65;;;-4.20;99.90;;;;;;5031695;28;20181;-73
2021/12/21 05:40:32;;;;;;;5.03;2.47;;;-4.20;99.90;;;;;;5031345;28;20158;-73
2021/12/21 05:42:58;;;;;;;6.07;2.95;;;-4.10;99.90;;;;;;5031345;28;20218;-73
2021/12/21 05:45:24;;;;;;;9.50;2.33;;;-3.90;99.90;;;;;;5031422;28;20193;-74
2021/12/21 05:47:50;;;;;;;6.63;3.50;;;-3.80;99.90;;;;;;5031540;28;20190;-74
2021/12/21 05:50:18;;;;;;;7.82;3.03;;;-3.80;99.90;;;;;;5031315;28;20186;-73
2021/12/21 05:52:45;;;;;;;4.47;3.45;;;-3.90;99.90;;;;;;5031517;28;20150;-73
2021/12/21 05:55:12;;;;;;;7.10;2.95;;;-3.90;99.90;;;;;;5031231;28;20213;-74
2021/12/21 05:57:39;;;;;;;10.07;3.65;;;-4.00;99.90;;;;;;5013116;28;20181;-74
2021/12/21 06:00:08;;;;;;;4.80;2.42;;;-3.90;99.90;;;;;;5030630;28;20240;-74
2021/12/21 06:02:34;;;;;;;4.28;2.28;;;-4.00;99.90;;;;;;5031066;28;20162;-74
2021/12/21 06:05:00;;;;;;;6.20;2.70;;;-4.00;99.90;;;;;;5013350;28;20255;-74
2021/12/21 06:07:26;;;;;;;4.15;2.28;;;-4.10;99.90;;;;;;5031002;28;20154;-74
2021/12/21 06:09:52;;;;;;;4.47;2.42;;;-3.90;99.90;;;;;;5030916;28;20188;-74
2021/12/21 06:15:10;;;;;;;9.75;3.60;;;-4.00;99.90;;;;;;5030862;28;20190;-74
2021/12/21 06:23:35;;;;;;;3.08;2.05;;;-3.90;99.90;;;;;;5030494;28;20185;-75
2021/12/21 06:26:01;;;;;;;7.15;3.35;;;-4.00;99.90;;;;;;5030256;28;20197;-75
2021/12/21 06:28:27;;;;;;;5.20;2.97;;;-4.00;99.90;;;;;;5030447;28;20245;-72
2021/12/21 06:30:53;;;;;;;9.35;3.10;;;-3.90;99.90;;;;;;5030444;28;20186;-73
2021/12/21 06:33:20;;;;;;;5.13;2.65;;;-3.80;99.90;;;;;;5012758;28;20166;-73
2021/12/21 06:35:46;;;;;;;6.63;3.60;;;-3.80;99.90;;;;;;5030022;28;20261;-74
2021/12/21 06:38:13;;;;;;;7.50;4.10;;;-3.80;99.90;;;;;;5030286;28;20241;-74
2021/12/21 06:40:39;;;;;;;9.65;3.65;;;-3.80;99.90;;;;;;5030101;28;20162;-72
2021/12/21 06:43:11;;;;;;;6.47;2.83;;;-3.80;99.90;;;;;;5030080;28;20154;-73
2021/12/21 06:53:36;;;;;;;6.72;3.50;;;-4.20;99.90;;;;;;5030403;28;20158;-73
2021/12/21 06:56:03;;;;;;;7.88;3.40;;;-4.10;99.90;;;;;;5029998;28;20189;-73
2021/12/21 06:58:29;;;;;;;5.55;3.13;;;-4.10;99.90;;;;;;5029831;28;20476;-73
2021/12/21 07:00:56;;;;;;;7.68;3.90;;;-4.10;99.90;;;;;;5012133;28;20176;-73
2021/12/21 07:03:23;;;;;;;20.45;5.07;;;-4.00;99.90;;;;;;5029944;28;20162;-74
2021/12/21 07:05:50;;;;;;;13.45;6.25;;;-3.90;99.90;;;;;;5029924;28;20222;-74
2021/12/21 07:08:22;;;;;;;10.95;7.13;;;-3.80;99.90;;;;;;5030006;28;20180;-73
2021/12/21 07:10:56;;;;;;;20.20;9.32;;;-3.80;99.90;;;;;;5029649;28;20189;-74
2021/12/21 07:18:52;;;;;;;14.00;7.07;;;-3.60;99.90;;;;;;5029601;28;20169;-73
2021/12/21 07:21:18;;;;;;;12.13;6.72;;;-3.50;99.90;;;;;;5029798;28;20158;-73
2021/12/21 07:23:44;;;;;;;14.93;7.25;;;-3.30;99.90;;;;;;5029317;28;20170;-73
2021/12/21 07:26:10;;;;;;;9.60;5.65;;;-3.30;99.90;;;;;;5029413;28;20201;-72
2021/12/21 07:28:36;;;;;;;9.35;5.63;;;-3.30;99.90;;;;;;5011688;28;20552;-73
2021/12/21 07:31:02;;;;;;;8.10;5.47;;;-3.30;99.90;;;;;;5029317;28;20214;-73
2021/12/21 07:33:28;;;;;;;10.30;5.30;;;-3.20;99.90;;;;;;5029584;28;20165;-74
2021/12/21 07:35:54;;;;;;;11.70;5.22;;;-3.10;99.90;;;;;;5029368;28;20193;-73
2021/12/21 07:38:22;;;;;;;7.47;3.80;;;-2.90;99.90;;;;;;5028672;28;20556;-73
2021/12/21 07:40:48;;;;;;;5.15;4.07;;;-2.70;99.90;;;;;;5029431;28;20161;-74
2021/12/21 07:43:14;;;;;;;14.32;4.05;;;-2.40;99.90;;;;;;5029322;28;20162;-73
2021/12/21 07:45:40;;;;;;;6.95;4.03;;;-1.90;99.90;;;;;;5029347;28;20193;-73
2021/12/21 07:48:07;;;;;;;8.68;5.40;;;-1.50;99.90;;;;;;5029284;28;20154;-74
2021/12/21 07:50:33;;;;;;;5.40;4.28;;;-1.50;99.90;;;;;;5029215;28;20299;-74
2021/12/21 07:53:01;;;;;;;12.65;4.20;;;-1.40;99.90;;;;;;5029095;28;20185;-73
2021/12/21 07:55:27;;;;;;;12.13;5.80;;;-1.40;99.90;;;;;;5028973;28;20193;-74
2021/12/21 07:57:53;;;;;;;6.57;4.03;;;-1.60;99.90;;;;;;5028608;28;20158;-73
2021/12/21 08:00:21;;;;;;;6.70;4.25;;;-1.80;99.90;;;;;;5028919;28;20355;-73
2021/12/21 08:02:47;;;;;;;8.77;4.35;;;-1.70;99.90;;;;;;5028917;28;20154;-73
2021/12/21 08:05:14;;;;;;;9.27;4.45;;;-1.60;99.90;;;;;;5029081;28;20194;-74
2021/12/21 08:07:54;;;;;;;15.30;5.07;;;-1.40;99.90;;;;;;5028926;28;20170;-73
2021/12/21 08:10:30;;;;;;;10.80;4.15;;;-1.30;99.90;;;;;;5028940;28;20190;-73
2021/12/21 08:12:57;;;;;;;20.00;4.15;;;-0.90;99.90;;;;;;5029010;28;20158;-74
2021/12/21 08:15:24;;;;;;;5.97;3.35;;;-0.70;99.90;;;;;;5028621;28;20209;-74
2021/12/21 08:17:50;;;;;;;6.05;3.42;;;-0.60;99.90;;;;;;5028729;28;20163;-74
2021/12/21 08:20:16;;;;;;;16.23;5.47;;;-0.50;99.90;;;;;;5029028;28;20163;-74
2021/12/21 08:22:42;;;;;;;13.70;6.22;;;1.30;99.90;;;;;;5028728;28;20166;-73
2021/12/21 08:25:09;;;;;;;11.25;5.53;;;4.10;99.90;;;;;;5028945;28;20193;-74
2021/12/21 08:27:35;;;;;;;9.15;3.67;;;5.20;99.90;;;;;;5029014;28;20228;-74
2021/12/21 08:30:01;;;;;;;4.53;3.15;;;5.90;99.90;;;;;;5028839;28;20186;-73
2021/12/21 08:32:27;;;;;;;5.15;3.35;;;6.40;99.90;;;;;;5028697;28;20181;-73
2021/12/21 08:34:53;;;;;;;6.63;3.33;;;7.10;99.90;;;;;;5021386;28;20222;-73
2021/12/21 08:37:19;;;;;;;11.63;4.15;;;7.50;99.90;;;;;;5019569;28;20237;-73
2021/12/21 08:39:45;;;;;;;6.82;2.90;;;7.20;99.90;;;;;;5016757;28;20174;-74
2021/12/21 08:42:14;;;;;;;6.65;3.20;;;7.60;99.90;;;;;;5017220;28;20707;-74
2021/12/21 08:44:43;;;;;;;9.90;3.47;;;7.00;99.90;;;;;;5024124;28;20206;-73
2021/12/21 08:47:09;;;;;;;8.05;3.42;;;6.50;99.90;;;;;;5012158;28;20170;-73
2021/12/21 08:49:35;;;;;;;6.20;3.50;;;6.10;99.90;;;;;;5021803;28;20249;-74
2021/12/21 08:52:01;;;;;;;10.95;3.95;;;5.50;99.90;;;;;;5017338;28;20169;-74
2021/12/21 08:54:27;;;;;;;6.93;3.50;;;3.90;99.90;;;;;;5004718;28;20198;-74
2021/12/21 08:56:53;;;;;;;8.73;3.13;;;3.30;99.90;;;;;;5012071;28;20194;-73
2021/12/21 08:59:19;;;;;;;6.00;2.95;;;2.50;99.90;;;;;;5023840;28;20222;-73
2021/12/21 09:01:46;;;;;;;6.25;3.45;;;1.80;99.90;;;;;;5016504;28;20178;-73
2021/12/21 09:04:15;;;;;;;9.38;3.90;;;1.60;99.90;;;;;;5016672;28;20250;-73
2021/12/21 09:06:41;;;;;;;9.43;3.95;;;3.30;99.90;;;;;;5024130;28;20184;-73
2021/12/21 09:09:07;;;;;;;8.13;3.05;;;5.20;99.90;;;;;;4994447;28;20194;-73
2021/12/21 09:11:33;;;;;;;9.00;3.28;;;5.70;99.90;;;;;;5024194;28;20713;-72
2021/12/21 09:13:58;;;;;;;12.80;4.55;;;6.00;99.90;;;;;;5021742;28;20185;-73
2021/12/21 09:16:24;;;;;;;17.23;3.47;;;6.50;99.90;;;;;;5023635;28;20202;-73
2021/12/21 09:18:50;;;;;;;7.60;3.97;;;7.40;99.90;;;;;;5027521;28;20170;-74
2021/12/21 09:21:16;;;;;;;10.13;4.53;;;7.80;99.90;;;;;;5023869;28;20166;-73
2021/12/21 09:23:42;;;;;;;10.50;3.67;;;7.50;99.90;;;;;;5001002;28;20178;-74
2021/12/21 09:26:08;;;;;;;8.23;3.30;;;8.20;99.90;;;;;;5023049;28;20194;-73
2021/12/21 09:28:34;;;;;;;6.18;3.28;;;9.00;99.90;;;;;;5017149;28;20178;-74
2021/12/21 09:31:00;;;;;;;8.80;3.80;;;9.40;99.90;;;;;;5010492;28;20204;-74
2021/12/21 09:33:26;;;;;;;13.50;4.45;;;10.00;99.90;;;;;;5018564;28;20226;-74
2021/12/21 09:35:52;;;;;;;20.30;6.60;;;10.40;99.90;;;;;;5003238;28;20194;-73
2021/12/21 09:38:20;;;;;;;14.85;4.40;;;10.50;99.90;;;;;;5019043;28;20175;-73
2021/12/21 09:40:46;;;;;;;9.07;4.50;;;10.30;99.90;;;;;;5027822;28;20174;-73
2021/12/21 09:43:13;;;;;;;8.77;4.80;;;9.80;99.90;;;;;;5011743;28;20166;-74
2021/12/21 09:45:40;;;;;;;9.25;4.95;;;9.00;99.90;;;;;;5018590;28;20225;-73
2021/12/21 09:48:07;;;;;;;9.30;4.30;;;8.80;99.90;;;;;;5020654;28;20267;-73
2021/12/21 09:50:34;;;;;;;7.68;4.30;;;8.80;99.90;;;;;;4997656;28;20241;-74
2021/12/21 09:53:00;;;;;;;9.10;4.85;;;8.70;99.90;;;;;;5027670;28;20190;-73
2021/12/21 09:55:29;;;;;;;7.25;4.93;;;9.00;99.90;;;;;;5016733;28;20682;-73
2021/12/21 09:57:56;;;;;;;10.95;5.15;;;9.70;99.90;;;;;;5022093;28;20193;-74
2021/12/21 10:00:29;;;;;;;8.68;4.57;;;10.50;99.90;;;;;;5024137;28;20287;-74
2021/12/21 10:03:02;;;;;;;7.70;5.00;;;10.90;99.90;;;;;;5019424;28;20170;-72
2021/12/21 10:05:31;;;;;;;14.55;5.30;;;11.20;99.90;;;;;;4999341;28;20237;-73
2021/12/21 10:08:07;;;;;;;8.05;4.72;;;11.30;99.90;;;;;;5031021;28;20525;-73
2021/12/21 10:10:38;;;;;;;9.73;4.85;;;10.30;99.90;;;;;;4998693;28;20198;-73
2021/12/21 10:13:09;;;;;;;12.90;5.72;;;9.90;99.90;;;;;;5018601;28;20202;-74
2021/12/21 10:15:44;;;;;;;6.57;4.75;;;10.30;99.90;;;;;;5010071;28;20190;-73
2021/12/21 10:18:11;;;;;;;11.50;5.65;;;9.70;99.90;;;;;;5004719;28;20170;-75
2021/12/21 10:20:40;;;;;;;6.53;4.93;;;9.10;99.90;;;;;;5024924;28;20245;-73
2021/12/21 10:23:13;;;;;;;6.03;3.72;;;8.30;99.90;;;;;;5027741;28;20190;-75
2021/12/21 10:25:48;;;;;;;13.35;5.32;;;8.10;99.90;;;;;;5000130;28;20185;-73
2021/12/21 10:28:29;;;;;;;7.65;4.70;;;8.20;99.90;;;;;;5018934;28;20169;-73
2021/12/21 10:30:56;;;;;;;6.25;5.20;;;8.00;99.90;;;;;;5027057;28;20194;-72
2021/12/21 10:33:23;;;;;;;9.93;5.68;;;7.40;99.90;;;;;;5010801;28;20187;-72
2021/12/21 10:35:52;;;;;;;6.78;3.85;;;7.40;99.90;;;;;;5011077;28;20182;-73
2021/12/21 10:38:36;;;;;;;10.85;4.45;;;8.00;99.90;;;;;;4992631;28;20181;-73
2021/12/21 10:41:12;;;;;;;10.13;4.57;;;8.40;99.90;;;;;;5011029;28;20494;-73
2021/12/21 10:43:39;;;;;;;10.00;4.28;;;8.60;99.90;;;;;;5010959;28;20163;-72
2021/12/21 10:46:06;;;;;;;16.30;4.68;;;8.60;99.90;;;;;;5018826;28;20170;-73
2021/12/21 10:48:35;;;;;;;13.30;4.93;;;8.30;99.90;;;;;;5030278;28;20166;-73
2021/12/21 10:51:04;;;;;;;5.75;4.30;;;8.80;99.90;;;;;;5012777;28;20189;-73
2021/12/21 10:53:31;;;;;;;12.90;5.28;;;8.30;99.90;;;;;;5012540;28;20682;-73
2021/12/21 10:56:08;;;;;;;10.23;4.68;;;7.90;99.90;;;;;;5030315;28;20209;-72
2021/12/21 10:58:40;;;;;;;13.05;6.32;;;8.30;99.90;;;;;;5030255;28;20216;-73
2021/12/21 11:01:11;;;;;;;26.17;8.73;;;9.00;99.90;;;;;;5030168;28;20162;-73
2021/12/21 11:03:46;;;;;;;12.48;6.15;;;9.30;99.90;;;;;;5028692;28;20162;-72
2021/12/21 11:06:14;;;;;;;5.60;3.65;;;8.70;99.90;;;;;;5029988;28;20618;-72
2021/12/21 11:08:43;;;;;;;4.78;3.13;;;9.30;99.90;;;;;;5030116;28;20171;-73
2021/12/21 11:11:32;;;;;;;5.05;3.70;;;8.10;99.90;;;;;;5029935;28;20221;-73
2021/12/21 11:14:09;;;;;;;8.77;4.65;;;7.20;99.90;;;;;;5014400;28;20242;-73
2021/12/21 11:16:46;;;;;;;9.55;5.15;;;8.30;99.90;;;;;;5010129;28;20162;-73
2021/12/21 11:19:14;;;;;;;11.30;4.88;;;9.40;99.90;;;;;;5010406;28;20153;-72
2021/12/21 11:21:42;;;;;;;13.43;4.93;;;8.50;99.90;;;;;;5029700;28;20186;-72
2021/12/21 11:24:13;;;;;;;14.77;4.18;;;8.30;99.90;;;;;;5012043;28;20189;-73
2021/12/21 11:26:41;;;;;;;7.40;3.67;;;8.00;99.90;;;;;;5029777;28;20192;-73
2021/12/21 11:29:12;;;;;;;6.90;3.88;;;8.10;99.90;;;;;;5011798;28;20184;-72
2021/12/21 11:31:41;;;;;;;6.32;4.05;;;7.60;99.90;;;;;;5029360;28;20224;-72
2021/12/21 11:34:15;;;;;;;14.80;5.15;;;6.80;99.90;;;;;;5011242;28;20639;-71
2021/12/21 11:39:34;;;;;;;8.05;4.18;;;6.70;99.90;;;;;;5029266;28;20256;-72
2021/12/21 11:42:05;;;;;;;8.15;4.25;;;6.30;99.90;;;;;;5029036;28;20194;-73
2021/12/21 11:44:52;;;;;;;7.32;4.07;;;6.90;99.90;;;;;;5029560;28;20565;-73
2021/12/21 11:47:31;;;;;;;9.38;4.45;;;6.70;99.90;;;;;;5028968;28;20529;-73
2021/12/21 11:50:04;;;;;;;6.78;3.80;;;7.40;99.90;;;;;;5011493;28;20209;-72
2021/12/21 11:52:41;;;;;;;4.07;3.13;;;7.20;99.90;;;;;;5029243;28;20269;-73
2021/12/21 11:55:09;;;;;;;7.53;3.92;;;7.70;99.90;;;;;;5029281;28;20157;-72
2021/12/21 11:57:42;;;;;;;5.53;3.80;;;8.30;99.90;;;;;;5028940;28;20162;-73
2021/12/21 12:00:16;;;;;;;6.80;4.00;;;8.90;99.90;;;;;;5028935;28;20244;-72
2021/12/21 12:02:45;;;;;;;9.65;3.92;;;8.80;99.90;;;;;;5011622;28;20197;-72
2021/12/21 12:05:17;;;;;;;7.38;3.83;;;8.40;99.90;;;;;;5029189;28;20166;-72
2021/12/21 12:07:43;;;;;;;10.57;4.43;;;8.80;99.90;;;;;;5029150;28;20162;-73
2021/12/21 12:10:16;;;;;;;10.13;4.45;;;8.90;99.90;;;;;;5029049;28;20182;-74
2021/12/21 12:12:42;;;;;;;12.05;5.20;;;9.40;99.90;;;;;;5029141;28;20220;-73
2021/12/21 12:15:10;;;;;;;7.50;3.97;;;9.40;99.90;;;;;;5028971;28;20265;-72
2021/12/21 12:17:50;;;;;;;7.75;3.65;;;9.50;99.90;;;;;;5028847;28;20208;-73
2021/12/21 12:20:18;;;;;;;4.15;3.30;;;8.90;99.90;;;;;;5028865;28;20166;-72
2021/12/21 12:22:47;;;;;;;8.32;4.13;;;7.80;99.90;;;;;;5011269;28;20197;-73
2021/12/21 12:25:22;;;;;;;6.20;3.42;;;7.80;99.90;;;;;;5011207;28;20201;-72
2021/12/21 12:27:51;;;;;;;8.20;4.22;;;8.50;99.90;;;;;;5011299;28;20173;-72
2021/12/21 12:30:21;;;;;;;5.97;3.35;;;7.70;99.90;;;;;;5028508;28;20192;-72
2021/12/21 12:32:48;;;;;;;11.05;3.80;;;6.40;99.90;;;;;;5028582;28;20212;-72
2021/12/21 12:35:21;;;;;;;5.05;3.50;;;5.30;99.90;;;;;;5028955;28;20166;-72
2021/12/21 12:38:02;;;;;;;9.85;4.80;;;4.90;99.90;;;;;;5011210;28;20628;-72
2021/12/21 12:40:32;;;;;;;7.45;4.07;;;4.60;99.90;;;;;;5028722;28;20167;-73
2021/12/21 12:43:14;;;;;;;7.53;3.70;;;4.50;99.90;;;;;;5028428;28;20287;-72
2021/12/21 12:46:03;;;;;;;7.00;4.22;;;4.40;99.90;;;;;;5013963;28;20248;-72
2021/12/21 12:48:39;;;;;;;13.23;3.95;;;4.30;99.90;;;;;;5032441;28;20550;-72
2021/12/21 12:51:07;;;;;;;7.05;3.33;;;4.30;99.90;;;;;;5032540;28;20192;-72
2021/12/21 12:53:42;;;;;;;6.85;3.42;;;4.20;99.90;;;;;;5032213;28;20185;-73
2021/12/21 12:56:10;;;;;;;11.00;3.75;;;4.10;99.90;;;;;;5032431;28;20169;-72
2021/12/21 12:58:47;;;;;;;5.78;3.17;;;4.00;99.90;;;;;;5032225;28;20159;-72
2021/12/21 13:01:20;;;;;;;7.93;3.38;;;3.40;99.90;;;;;;5032341;28;20176;-73
2021/12/21 13:03:47;;;;;;;4.53;2.63;;;3.30;99.90;;;;;;5014557;28;20178;-72
2021/12/21 13:06:18;;;;;;;15.60;4.65;;;3.30;99.90;;;;;;5032339;28;20166;-72
2021/12/21 13:08:44;;;;;;;7.18;3.22;;;3.40;99.90;;;;;;5032156;28;20154;-72
2021/12/21 13:11:12;;;;;;;11.82;4.72;;;3.40;99.90;;;;;;5014103;28;20206;-72
2021/12/21 13:13:41;;;;;;;7.57;2.92;;;3.20;99.90;;;;;;5032068;28;20177;-72
2021/12/21 13:16:15;;;;;;;7.43;3.55;;;3.30;99.90;;;;;;5031836;28;20150;-72
2021/12/21 13:18:53;;;;;;;8.32;3.92;;;3.40;99.90;;;;;;5031966;28;20153;-72
2021/12/21 13:21:29;;;;;;;9.23;4.38;;;3.40;99.90;;;;;;5031920;28;20174;-72
2021/12/21 13:24:01;;;;;;;8.43;3.97;;;3.10;99.90;;;;;;5031958;28;20165;-72
2021/12/21 13:26:37;;;;;;;6.88;3.65;;;3.10;99.90;;;;;;5031724;28;20159;-72
2021/12/21 13:29:05;;;;;;;5.38;3.55;;;3.00;99.90;;;;;;5031925;28;20173;-73
2021/12/21 13:31:31;;;;;;;5.80;3.15;;;2.90;99.90;;;;;;5013956;28;20213;-72
2021/12/21 13:33:59;;;;;;;10.35;3.88;;;3.00;99.90;;;;;;5031756;28;20630;-72
2021/12/21 13:36:43;;;;;;;4.82;3.67;;;3.00;99.90;;;;;;5013875;28;20205;-73
2021/12/21 13:39:15;;;;;;;9.68;4.93;;;2.90;99.90;;;;;;5031748;28;20150;-72
2021/12/21 13:41:46;;;;;;;11.60;5.20;;;2.90;99.90;;;;;;5013951;28;20206;-73
2021/12/21 13:44:12;;;;;;;16.02;6.38;;;2.80;99.90;;;;;;5031700;28;20201;-73
2021/12/21 13:46:38;;;;;;;13.95;5.55;;;2.70;99.90;;;;;;5031428;28;20166;-72
2021/12/21 13:49:04;;;;;;;6.43;2.88;;;2.60;99.90;;;;;;5031568;28;20226;-72
2021/12/21 13:51:31;;;;;;;8.63;4.63;;;2.70;99.90;;;;;;5031346;28;20206;-73
2021/12/21 13:53:58;;;;;;;9.95;4.07;;;2.70;99.90;;;;;;5031388;28;20202;-72
2021/12/21 13:56:26;;;;;;;14.45;4.90;;;2.50;99.90;;;;;;5030578;28;20221;-72
2021/12/21 13:58:56;;;;;;;7.00;3.50;;;2.50;99.90;;;;;;5031327;28;20206;-73
2021/12/21 14:01:25;;;;;;;17.70;5.25;;;2.40;99.90;;;;;;5031140;28;20170;-72
2021/12/21 14:03:56;;;;;;;7.88;3.92;;;2.40;99.90;;;;;;5013614;28;20181;-73
2021/12/21 14:06:24;;;;;;;8.90;4.57;;;2.60;99.90;;;;;;5031140;28;20159;-73
2021/12/21 14:08:52;;;;;;;14.10;5.60;;;2.60;99.90;;;;;;5031000;28;20162;-72